createdAt,value
2022-08-19T00:00:10.768Z,17.42
2022-08-19T00:02:50.573Z,15.90
2022-08-19T00:05:25.518Z,15.95
2022-08-19T00:07:57.429Z,14.10
2022-08-19T00:10:29.390Z,14.68
2022-08-19T00:13:01.350Z,14.63
2022-08-19T00:15:33.653Z,14.38
2022-08-19T00:18:05.674Z,15.93
2022-08-19T00:20:41.499Z,16.23
2022-08-19T00:23:13.351Z,14.48
2022-08-19T00:25:45.621Z,14.82
2022-08-19T00:28:21.707Z,16.80
2022-08-19T00:30:54.323Z,15.80
2022-08-19T00:33:28.812Z,16.65
2022-08-19T00:36:07.441Z,17.17
2022-08-19T00:38:44.291Z,16.90
2022-08-19T00:41:22.267Z,16.05
2022-08-19T00:44:07.956Z,17.13
2022-08-19T00:46:43.395Z,15.55
2022-08-19T00:49:29.030Z,16.10
2022-08-19T00:52:07.184Z,15.32
2022-08-19T00:54:40.218Z,16.80
2022-08-19T00:57:16.070Z,15.82
2022-08-19T01:00:02.220Z,15.50
2022-08-19T01:02:34.883Z,15.43
2022-08-19T01:05:11.714Z,15.63
2022-08-19T01:07:46.220Z,15.85
2022-08-19T01:10:24.053Z,16.77
2022-08-19T01:12:58.710Z,19.27
2022-08-19T01:15:35.086Z,16.35
2022-08-19T01:18:10.730Z,14.63
2022-08-19T01:20:44.015Z,14.93
2022-08-19T01:23:16.678Z,14.68
2022-08-19T01:25:54.746Z,16.02
2022-08-19T01:28:34.172Z,16.08
2022-08-19T01:31:26.752Z,16.80
2022-08-19T01:34:00.369Z,16.52
2022-08-19T01:36:36.653Z,14.88
2022-08-19T01:39:11.812Z,15.52
2022-08-19T01:41:43.752Z,16.38
2022-08-19T01:44:19.276Z,15.38
2022-08-19T01:46:52.486Z,15.40
2022-08-19T01:49:27.632Z,14.35
2022-08-19T01:52:02.666Z,15.85
2022-08-19T01:54:34.759Z,15.48
2022-08-19T01:57:09.630Z,16.98
2022-08-19T01:59:43.861Z,16.50
2022-08-19T02:02:18.310Z,15.65
2022-08-19T02:04:50.360Z,15.55
2022-08-19T02:07:22.787Z,15.18
2022-08-19T02:09:56.046Z,15.85
2022-08-19T02:12:28.027Z,14.98
2022-08-19T02:15:00.863Z,14.07
2022-08-19T02:17:33.122Z,15.25
2022-08-19T02:20:07.186Z,14.55
2022-08-19T02:22:39.849Z,14.60
2022-08-19T02:25:13.670Z,15.05
2022-08-19T02:27:45.557Z,14.00
2022-08-19T02:30:18.415Z,14.10
2022-08-19T02:32:50.286Z,14.73
2022-08-19T02:35:25.134Z,15.27
2022-08-19T02:38:15.320Z,15.15
2022-08-19T02:40:52.920Z,14.82
2022-08-19T02:43:28.983Z,14.45
2022-08-19T02:46:21.844Z,14.93
2022-08-19T02:48:56.309Z,15.07
2022-08-19T02:51:48.151Z,15.18
2022-08-19T02:54:20.222Z,16.08
2022-08-19T02:56:52.533Z,14.48
2022-08-19T02:59:24.361Z,14.13
2022-08-19T03:01:56.243Z,14.68
2022-08-19T03:04:28.468Z,16.13
2022-08-19T03:07:09.485Z,14.60
2022-08-19T03:09:43.621Z,15.25
2022-08-19T03:12:17.781Z,16.83
2022-08-19T03:14:49.617Z,17.75
2022-08-19T03:17:24.415Z,16.48
2022-08-19T03:19:56.659Z,17.33
2022-08-19T03:22:31.147Z,16.33
2022-08-19T03:25:05.774Z,17.80
2022-08-19T03:27:37.684Z,15.43
2022-08-19T03:30:11.643Z,16.58
2022-08-19T03:32:45.295Z,15.68
2022-08-19T03:35:17.603Z,14.68
2022-08-19T03:37:49.864Z,16.55
2022-08-19T03:40:23.973Z,15.98
2022-08-19T03:42:58.336Z,17.55
2022-08-19T03:45:30.475Z,20.80
2022-08-19T03:48:02.469Z,16.00
2022-08-19T03:50:34.297Z,15.43
2022-08-19T03:53:07.480Z,18.90
2022-08-19T03:55:42.788Z,15.65
2022-08-19T03:58:14.689Z,14.07
2022-08-19T04:00:49.001Z,16.45
2022-08-19T04:03:20.995Z,20.42
2022-08-19T04:05:52.880Z,17.75
2022-08-19T04:08:24.857Z,15.77
2022-08-19T04:10:56.683Z,15.57
2022-08-19T04:13:31.057Z,14.07
2022-08-19T04:16:03.233Z,18.50
2022-08-19T04:18:36.533Z,22.35
2022-08-19T04:21:11.550Z,19.52
2022-08-19T04:23:44.760Z,18.98
2022-08-19T04:26:24.978Z,15.95
2022-08-19T04:28:59.305Z,14.57
2022-08-19T04:31:33.644Z,13.60
2022-08-19T04:34:08.200Z,14.95
2022-08-19T04:36:42.364Z,18.05
2022-08-19T04:39:20.166Z,16.10
2022-08-19T04:42:13.279Z,19.70
2022-08-19T04:44:46.428Z,16.27
2022-08-19T04:47:18.468Z,21.98
2022-08-19T04:50:12.342Z,18.88
2022-08-19T04:52:44.219Z,17.00
2022-08-19T04:55:19.067Z,19.75
2022-08-19T04:57:51.783Z,20.45
2022-08-19T05:00:24.199Z,19.95
2022-08-19T05:02:58.201Z,21.20
2022-08-19T05:05:32.684Z,21.80
2022-08-19T05:08:31.249Z,19.70
2022-08-19T05:11:14.598Z,21.25
2022-08-19T05:13:47.155Z,19.25
2022-08-19T05:16:21.636Z,19.88
2022-08-19T05:19:13.160Z,19.08
2022-08-19T05:22:04.576Z,18.25
2022-08-19T05:24:47.438Z,18.27
2022-08-19T05:27:28.667Z,19.45
2022-08-19T05:30:00.946Z,14.85
2022-08-19T05:32:32.842Z,17.98
2022-08-19T05:35:05.939Z,23.98
2022-08-19T05:37:38.169Z,17.65
2022-08-19T05:40:12.902Z,19.38
2022-08-19T05:42:44.802Z,15.82
2022-08-19T05:45:29.334Z,16.67
2022-08-19T05:48:03.351Z,15.40
2022-08-19T05:50:39.657Z,18.15
2022-08-19T05:53:11.526Z,18.00
2022-08-19T05:55:43.474Z,28.67
2022-08-19T05:58:15.325Z,18.55
2022-08-19T06:00:47.249Z,16.45
2022-08-19T06:03:19.129Z,16.52
2022-08-19T06:05:51.991Z,14.23
2022-08-19T06:08:33.688Z,19.80
2022-08-19T06:11:24.024Z,17.55
2022-08-19T06:14:00.238Z,15.57
2022-08-19T06:16:36.172Z,23.10
2022-08-19T06:19:10.870Z,14.80
2022-08-19T06:21:44.918Z,16.58
2022-08-19T06:24:25.292Z,16.92
2022-08-19T06:27:00.988Z,16.73
2022-08-19T06:29:34.516Z,14.13
2022-08-19T06:32:06.803Z,14.93
2022-08-19T06:34:38.897Z,18.15
2022-08-19T06:37:13.414Z,14.05
2022-08-19T06:39:46.309Z,13.55
2022-08-19T06:42:19.676Z,13.45
2022-08-19T06:44:59.115Z,13.02
2022-08-19T06:47:33.316Z,11.80
2022-08-19T06:50:08.095Z,11.85
2022-08-19T06:52:40.407Z,14.43
2022-08-19T06:55:13.073Z,14.15
2022-08-19T06:57:47.293Z,10.05
2022-08-19T07:00:21.444Z,13.95
2022-08-19T07:02:59.087Z,12.63
2022-08-19T07:05:40.217Z,11.98
2022-08-19T07:08:17.179Z,8.50
2022-08-19T07:10:50.556Z,9.00
2022-08-19T07:13:23.063Z,8.32
2022-08-19T07:15:57.101Z,9.27
2022-08-19T07:18:29.402Z,17.08
2022-08-19T07:21:11.012Z,10.07
2022-08-19T07:23:45.689Z,11.70
2022-08-19T07:26:29.372Z,10.68
2022-08-19T07:29:02.665Z,12.50
2022-08-19T07:31:38.552Z,9.88
2022-08-19T07:34:14.878Z,12.35
2022-08-19T07:36:47.241Z,8.75
2022-08-19T07:39:25.534Z,8.82
2022-08-19T07:41:59.070Z,11.65
2022-08-19T07:44:31.134Z,11.60
2022-08-19T07:47:05.119Z,11.80
2022-08-19T07:49:36.961Z,14.45
2022-08-19T07:52:10.886Z,13.18
2022-08-19T07:54:42.835Z,10.43
2022-08-19T07:57:14.717Z,13.32
2022-08-19T07:59:46.724Z,12.70
2022-08-19T08:02:18.625Z,10.68
2022-08-19T08:05:09.231Z,11.90
2022-08-19T08:07:59.885Z,13.07
2022-08-19T08:10:31.772Z,9.88
2022-08-19T08:13:09.523Z,13.68
2022-08-19T08:15:43.353Z,20.42
2022-08-19T08:18:15.687Z,14.68
2022-08-19T08:20:47.774Z,16.05
2022-08-19T08:23:30.233Z,13.05
2022-08-19T08:26:03.209Z,15.13
2022-08-19T08:28:35.109Z,12.45
2022-08-19T08:31:09.331Z,12.95
2022-08-19T08:33:42.918Z,13.77
2022-08-19T08:36:18.507Z,17.15
2022-08-19T08:42:10.241Z,11.90
2022-08-19T08:44:59.651Z,12.05
2022-08-19T08:47:38.532Z,13.27
2022-08-19T08:50:20.744Z,16.92
2022-08-19T08:52:57.081Z,11.60
2022-08-19T08:55:36.672Z,10.70
2022-08-19T08:58:25.428Z,11.93
2022-08-19T09:00:59.609Z,18.60
2022-08-19T09:03:31.828Z,10.30
2022-08-19T09:06:11.887Z,13.38
2022-08-19T09:09:19.747Z,14.57
2022-08-19T09:12:11.683Z,10.20
2022-08-19T09:14:52.353Z,11.65
2022-08-19T09:17:36.219Z,12.95
2022-08-19T09:20:11.523Z,12.55
2022-08-19T09:22:47.505Z,12.98
2022-08-19T09:25:26.680Z,11.07
2022-08-19T09:28:05.899Z,11.85
2022-08-19T09:30:54.366Z,12.73
